map of SLH home
SLH - Airport
Location
City:  Sola, Vanua Lava Island, Banks Islands, Torba, Vanuatu
ICAO:NVSC
IATA:SLH

Details
Type:Airport (Aerodrome, Airfield)
Latitude:1351'06"S (-13.851666)
Longitude:16732'13"E (167.536944)
Elevation:7 ft (2 m)
Variation:10.62E (WMM2015 magnetic declination)
0.03 annual change
Runways:unknown number
Longest:2297 ft (700 m)

Time
Time Zone:UTC+11
Local Time:

Weather
METAR:NVSC 032100Z 00000KT 9999 BKN018 OVC040 27/26 Q1010 RMK RESH

Related Locations
Nearby:
Farthest:NIK: 12373 mi / 19913 km
Niokolo-Koba, TC, SN

Find:

   beyond  
but within

Other Information
Maps:
NOTAMs:
Links:
Sources:

  
flag of Vanuatu   

Sectional Chart

Flight Planning
at skyvector.com

Satellite Image

Google Maps Satellite view

 

Copyright © 2004-2016 Karl L. Swartz. All rights reserved.
The Great Circle Mapper name and logo are trademarks of the Great Circle Mapper.
All other trademarks mentioned herein belong to their respective owners.
Please see credits for attibutions and further copyright information.

  Follow gcmap on Facebook Follow gcmap on Twitter Follow gcmap on Google+ GCmap on LinkedIn

hCard Microformat

Geo Microformat